KBNW/BNW METAR and TAF weather

Enter ICAO airport designator
Station Type Date Time Source
KBNW METAR 2021/05/14 06:55 UTC NOAA

KBNW 140655Z AUTO 15007KT 10SM CLR 09/00 A3028 RMK AO2


Station Type Date Time Source
KBNW Decoded METAR 2021/05/14 06:55 UTC NOAA

Boone Municipal, IA, United States (KBNW) 42-03N 093-51W
May 14, 2021 - 02:55 AM EDT / 2021.05.14 0655 UTC
Wind: from the SSE (150 degrees) at 8 MPH (7 KT):0
Visibility: 10 mile(s):0
Sky conditions: clear
Temperature: 48 F (9 C)
Dew Point: 32 F (0 C)
Relative Humidity: 53%
Pressure (altimeter): 30.28 in. Hg (1025 hPa)
ob: KBNW 140655Z AUTO 15007KT 10SM CLR 09/00 A3028 RMK AO2
cycle: 7

Station Type Date Time Source
KBNW TAF UTC NOAA

Error!

Example: see airport list